Time;durP1;ratioP1;P1;durP2;ratioP2;P2;SDS_P1;SDS_P2;PMS_P1;PMS_P2;Temp;Humidity;BMP_temperature;BMP_pressure;BME280_temperature;BME280_humidity;BME280_pressure;Samples;Min_cycle;Max_cycle;Signal;HPM_P1;HPM_P2
2021/11/30 00:01:14;;;;;;;2.93;2.73;;;;;;;2.12;100.00;99818.19;5071368;28;20202;-81
2021/11/30 00:03:39;;;;;;;5.23;3.90;;;;;;;2.16;100.00;99816.56;5071239;28;20202;-81
2021/11/30 00:06:06;;;;;;;2.73;2.53;;;;;;;2.19;100.00;99812.53;5070686;28;20170;-80
2021/11/30 00:08:33;;;;;;;3.43;1.97;;;;;;;2.22;100.00;99812.81;5070552;28;20184;-80
2021/11/30 00:11:00;;;;;;;6.67;5.93;;;;;;;2.25;100.00;99806.06;5070975;28;20503;-81
2021/11/30 00:13:28;;;;;;;2.20;2.10;;;;;;;2.26;100.00;99808.47;5071102;28;20167;-81
2021/11/30 00:15:55;;;;;;;1.90;1.80;;;;;;;2.27;100.00;99807.38;5070889;28;20197;-80
2021/11/30 00:18:21;;;;;;;3.70;2.47;;;;;;;2.26;100.00;99797.69;5071096;28;20409;-80
2021/11/30 00:20:47;;;;;;;6.70;6.00;;;;;;;2.27;100.00;99796.63;5070946;28;20239;-80
2021/11/30 00:23:14;;;;;;;3.50;3.10;;;;;;;2.28;100.00;99787.44;5070738;28;20182;-80
2021/11/30 00:25:40;;;;;;;3.83;3.43;;;;;;;2.29;100.00;99791.75;5069734;28;20526;-81
2021/11/30 00:28:07;;;;;;;6.97;6.00;;;;;;;2.32;100.00;99788.53;5070765;28;20175;-80
2021/11/30 00:30:33;;;;;;;3.13;2.83;;;;;;;2.37;100.00;99785.00;5070910;28;20579;-80
2021/11/30 00:33:00;;;;;;;3.07;2.87;;;;;;;2.38;100.00;99794.72;5068495;28;20470;-80
2021/11/30 00:35:27;;;;;;;2.23;2.13;;;;;;;2.38;100.00;99776.66;5070086;28;20244;-81
2021/11/30 00:37:52;;;;;;;3.93;3.17;;;;;;;2.39;100.00;99775.56;5070290;28;20236;-80
2021/11/30 00:40:18;;;;;;;5.83;4.50;;;;;;;2.40;100.00;99768.28;5070429;28;20178;-81
2021/11/30 00:42:44;;;;;;;4.07;3.77;;;;;;;2.42;100.00;99773.41;5070588;28;20186;-80
2021/11/30 00:45:13;;;;;;;1.23;1.23;;;;;;;2.43;100.00;99767.72;5070341;28;20170;-80
2021/11/30 00:47:45;;;;;;;8.63;7.73;;;;;;;2.42;100.00;99770.69;5070018;28;20167;-80
2021/11/30 00:50:11;;;;;;;8.10;7.40;;;;;;;2.42;100.00;99770.69;5070923;28;20606;-82
2021/11/30 00:52:37;;;;;;;2.30;2.00;;;;;;;2.41;100.00;99764.50;5070481;28;20214;-81
2021/11/30 00:55:03;;;;;;;6.97;3.27;;;;;;;2.43;100.00;99766.94;5070130;28;20247;-81
2021/11/30 00:57:29;;;;;;;3.33;3.13;;;;;;;2.46;100.00;99771.75;5070116;28;20539;-80
2021/11/30 00:59:54;;;;;;;3.93;3.70;;;;;;;2.45;100.00;99760.19;5069227;28;20289;-80
2021/11/30 01:02:19;;;;;;;7.77;3.20;;;;;;;2.46;100.00;99767.22;5070459;28;20649;-80
2021/11/30 01:04:46;;;;;;;2.43;2.27;;;;;;;2.45;100.00;99754.78;5070152;28;20669;-80
2021/11/30 01:07:12;;;;;;;4.07;3.63;;;;;;;2.45;100.00;99741.31;5070568;28;20211;-80
2021/11/30 01:09:42;;;;;;;9.63;8.33;;;;;;;2.48;100.00;99739.97;5069124;28;20189;-80
2021/11/30 01:12:08;;;;;;;9.27;6.90;;;;;;;2.51;100.00;99736.72;5070152;28;20163;-79
2021/11/30 01:14:33;;;;;;;5.97;5.03;;;;;;;2.53;100.00;99729.16;5070068;28;20305;-80
2021/11/30 01:16:59;;;;;;;5.57;5.07;;;;;;;2.52;100.00;99731.06;5068921;28;20582;-81
2021/11/30 01:19:25;;;;;;;4.10;3.77;;;;;;;2.52;100.00;99730.25;5070353;28;20175;-80
2021/11/30 01:21:51;;;;;;;8.43;7.60;;;;;;;2.51;100.00;99729.44;5072146;28;20216;-80
2021/11/30 01:24:16;;;;;;;11.27;3.03;;;;;;;2.53;100.00;99739.94;5072939;28;20247;-80
2021/11/30 01:26:42;;;;;;;5.03;4.63;;;;;;;2.52;100.00;99736.44;5073940;28;20185;-80
2021/11/30 01:29:07;;;;;;;3.23;1.70;;;;;;;2.50;100.00;99745.88;5074161;28;20647;-80
2021/11/30 01:31:34;;;;;;;5.70;3.70;;;;;;;2.51;100.00;99724.03;5074444;28;20175;-80
2021/11/30 01:33:59;;;;;;;6.00;3.40;;;;;;;2.54;100.00;99717.28;5073037;28;20531;-81
2021/11/30 01:36:25;;;;;;;10.80;9.17;;;;;;;2.54;100.00;99714.59;5073895;28;20420;-80
2021/11/30 01:38:50;;;;;;;14.63;6.60;;;;;;;2.57;100.00;99706.75;5073988;28;20167;-80
2021/11/30 01:41:16;;;;;;;4.63;4.23;;;;;;;2.63;100.00;99694.88;5074421;28;20174;-80
2021/11/30 01:43:43;;;;;;;3.47;1.90;;;;;;;2.64;100.00;99685.69;5074139;28;20178;-79
2021/11/30 01:51:29;;;;;;;3.50;3.30;;;;;;;2.72;100.00;99691.59;5074033;28;20177;-80
2021/11/30 01:53:55;;;;;;;2.50;2.30;;;;;;;2.73;100.00;99677.00;5073537;28;20206;-80
2021/11/30 01:56:21;;;;;;;2.20;2.00;;;;;;;2.77;100.00;99676.19;5073560;28;20262;-80
2021/11/30 01:58:48;;;;;;;5.77;5.20;;;;;;;2.81;100.00;99688.03;5073718;28;20598;-80
2021/11/30 02:01:15;;;;;;;8.03;4.33;;;;;;;2.86;100.00;99668.31;5073456;28;20650;-80
2021/11/30 02:03:41;;;;;;;2.57;2.37;;;;;;;2.88;100.00;99671.53;5073429;28;20579;-80
2021/11/30 02:06:06;;;;;;;5.30;4.57;;;;;;;2.90;100.00;99666.69;5073260;28;20170;-80
2021/11/30 02:08:32;;;;;;;5.87;3.10;;;;;;;2.93;100.00;99658.03;5073305;28;20186;-79
2021/11/30 02:10:57;;;;;;;12.10;1.93;;;;;;;2.94;100.00;99651.53;5073380;28;20181;-80
2021/11/30 02:13:24;;;;;;;10.63;3.73;;;;;;;2.97;100.00;99649.06;5073272;28;20241;-80
2021/11/30 02:15:54;;;;;;;5.40;4.90;;;;;;;3.04;100.00;99642.53;5073251;28;20174;-79
2021/11/30 02:18:22;;;;;;;2.30;1.83;;;;;;;3.09;100.00;99640.63;5073245;28;20584;-79
2021/11/30 02:20:48;;;;;;;4.03;2.23;;;;;;;3.10;100.00;99639.53;5073513;28;20198;-80
2021/11/30 02:23:25;;;;;;;3.20;1.50;;;;;;;3.08;100.00;99635.53;5072115;28;20262;-80
2021/11/30 02:25:50;;;;;;;1.87;1.63;;;;;;;3.08;100.00;99636.31;5072865;28;20180;-80
2021/11/30 02:28:15;;;;;;;1.77;1.67;;;;;;;3.04;100.00;99629.06;5073049;28;20167;-80
2021/11/30 02:30:41;;;;;;;0.90;0.90;;;;;;;2.94;100.00;99635.34;5073111;28;20202;-80
2021/11/30 02:33:06;;;;;;;3.47;2.13;;;;;;;2.84;100.00;99628.13;5072368;28;20626;-81
2021/11/30 02:35:32;;;;;;;0.73;0.73;;;;;;;2.77;100.00;99621.44;5072742;28;20743;-81
2021/11/30 02:37:59;;;;;;;1.70;1.10;;;;;;;2.66;100.00;99608.03;5073366;28;20175;-80
2021/11/30 02:40:25;;;;;;;0.70;0.70;;;;;;;2.62;100.00;99608.88;5073177;28;20208;-80
2021/11/30 02:42:50;;;;;;;0.80;0.80;;;;;;;2.57;100.00;99600.78;5072829;28;20527;-81
2021/11/30 02:45:15;;;;;;;1.07;1.07;;;;;;;2.56;100.00;99591.91;5072780;28;20182;-80
2021/11/30 02:47:41;;;;;;;1.03;0.93;;;;;;;2.54;100.00;99588.69;5073585;28;20185;-81
2021/11/30 02:50:07;;;;;;;7.10;2.20;;;;;;;2.56;100.00;99572.22;5072718;28;20698;-81
2021/11/30 02:52:35;;;;;;;1.67;1.57;;;;;;;2.59;100.00;99555.47;5072847;28;20178;-80
2021/11/30 02:55:00;;;;;;;1.80;1.70;;;;;;;2.62;100.00;99557.63;5072316;28;20202;-80
2021/11/30 02:57:26;;;;;;;1.63;1.50;;;;;;;2.66;100.00;99558.69;5072247;28;20171;-81
2021/11/30 02:59:54;;;;;;;15.90;3.20;;;;;;;2.69;100.00;99544.63;5072512;28;20171;-80
2021/11/30 03:02:22;;;;;;;3.33;3.13;;;;;;;2.71;100.00;99533.56;5072503;28;20258;-80
2021/11/30 03:04:50;;;;;;;4.13;3.83;;;;;;;2.77;100.00;99535.94;5072178;28;20193;-81
2021/11/30 03:07:19;;;;;;;4.00;3.73;;;;;;;2.82;100.00;99529.69;5072449;28;20220;-80
2021/11/30 03:09:45;;;;;;;1.57;1.53;;;;;;;2.81;100.00;99526.19;5072374;28;20214;-80
2021/11/30 03:12:12;;;;;;;2.83;1.80;;;;;;;2.81;100.00;99490.34;5072487;28;20626;-80
2021/11/30 03:14:38;;;;;;;1.77;1.67;;;;;;;2.81;100.00;99501.13;5070864;28;20283;-80
2021/11/30 03:17:04;;;;;;;2.17;1.97;;;;;;;2.78;100.00;99502.50;5072262;28;20638;-80
2021/11/30 03:19:30;;;;;;;2.70;2.50;;;;;;;2.77;100.00;99482.00;5072241;28;20175;-79
2021/11/30 03:21:58;;;;;;;3.73;3.43;;;;;;;2.75;100.00;99477.97;5072272;28;20219;-80
2021/11/30 03:24:25;;;;;;;3.17;2.93;;;;;;;2.69;100.00;99472.63;5072064;28;20171;-80
2021/11/30 03:26:51;;;;;;;6.20;3.20;;;;;;;2.67;100.00;99476.69;5071758;28;20630;-80
2021/11/30 03:29:16;;;;;;;2.33;2.13;;;;;;;2.66;100.00;99478.59;5071855;28;20181;-80
2021/11/30 03:34:13;;;;;;;4.87;4.47;;;;;;;2.67;100.00;99471.31;5072348;28;20198;-79
2021/11/30 03:36:40;;;;;;;5.03;3.93;;;;;;;2.66;100.00;99450.81;5071777;28;20220;-79
2021/11/30 03:39:09;;;;;;;3.83;3.53;;;;;;;2.66;100.00;99457.03;5071612;28;20171;-79
2021/11/30 03:41:35;;;;;;;4.27;3.23;;;;;;;2.59;100.00;99464.63;5071748;28;20174;-79
2021/11/30 03:44:01;;;;;;;4.03;3.63;;;;;;;2.52;100.00;99461.47;5070963;28;20208;-79
2021/11/30 03:46:27;;;;;;;3.07;2.87;;;;;;;2.42;100.00;99433.78;5071420;28;20654;-79
2021/11/30 03:48:52;;;;;;;2.87;2.47;;;;;;;2.29;100.00;99433.31;5071626;28;20475;-79
2021/11/30 03:51:18;;;;;;;8.13;3.30;;;;;;;2.23;100.00;99423.69;5071569;28;20645;-79
2021/11/30 03:53:43;;;;;;;1.17;1.17;;;;;;;2.20;100.00;99420.75;5071374;28;20198;-79
2021/11/30 03:56:09;;;;;;;2.27;1.80;;;;;;;2.16;100.00;99398.94;5071070;28;20182;-79
2021/11/30 03:58:34;;;;;;;1.40;1.30;;;;;;;2.15;100.00;99413.50;5071114;28;20182;-79
2021/11/30 04:00:59;;;;;;;0.87;0.87;;;;;;;2.11;100.00;99395.50;5071495;28;20181;-79
2021/11/30 04:03:30;;;;;;;1.10;1.10;;;;;;;2.06;100.00;99394.44;5071669;28;20266;-79
2021/11/30 04:05:56;;;;;;;2.73;2.17;;;;;;;2.02;100.00;99388.00;5071407;28;20167;-79
2021/11/30 04:08:21;;;;;;;7.10;2.30;;;;;;;2.00;100.00;99397.44;5071096;28;21077;-79
2021/11/30 04:10:47;;;;;;;0.67;0.67;;;;;;;2.00;100.00;99383.97;5069939;28;20702;-79
2021/11/30 04:13:12;;;;;;;3.83;3.53;;;;;;;1.91;100.00;99383.00;5071379;28;20274;-80
2021/11/30 04:15:38;;;;;;;2.50;2.30;;;;;;;1.85;100.00;99376.81;5070812;28;20218;-79
2021/11/30 04:18:03;;;;;;;0.33;0.33;;;;;;;1.76;100.00;99354.28;5071028;28;20194;-79
2021/11/30 04:20:28;;;;;;;13.60;2.40;;;;;;;1.71;100.00;99349.72;5071467;28;20217;-79
2021/11/30 04:22:54;;;;;;;2.30;1.83;;;;;;;1.63;100.00;99328.78;5071032;28;20202;-79
2021/11/30 04:25:19;;;;;;;1.63;1.53;;;;;;;1.59;100.00;99316.97;5070977;28;20596;-79
2021/11/30 04:27:45;;;;;;;4.40;4.00;;;;;;;1.59;100.00;99324.22;5068398;28;20193;-80
2021/11/30 04:30:11;;;;;;;5.27;2.77;;;;;;;1.57;100.00;99300.28;5068827;28;20193;-79
2021/11/30 04:32:36;;;;;;;1.20;1.10;;;;;;;1.53;100.00;99285.78;5070819;28;20174;-79
2021/11/30 04:35:03;;;;;;;1.60;1.50;;;;;;;1.49;100.00;99277.47;5070623;28;20274;-80
2021/11/30 04:37:31;;;;;;;1.30;1.00;;;;;;;1.47;100.00;99260.81;5070717;28;20248;-79
2021/11/30 04:39:56;;;;;;;2.33;2.13;;;;;;;1.41;100.00;99250.34;5071146;28;20421;-79
2021/11/30 04:42:25;;;;;;;3.43;3.23;;;;;;;1.38;100.00;99240.16;5070661;28;20489;-79
2021/11/30 04:44:58;;;;;;;0.97;0.97;;;;;;;1.35;100.00;99246.09;5070733;28;20178;-79
2021/11/30 04:47:27;;;;;;;1.17;1.10;;;;;;;1.29;100.00;99258.75;5070864;28;20870;-80
2021/11/30 04:49:56;;;;;;;2.03;1.43;;;;;;;1.25;100.00;99216.56;5071126;28;20847;-78
2021/11/30 04:52:21;;;;;;;0.97;0.97;;;;;;;1.18;100.00;99217.69;5070318;28;20833;-79
2021/11/30 04:54:47;;;;;;;0.50;0.50;;;;;;;1.16;100.00;99217.19;5070571;28;20464;-79
2021/11/30 04:57:12;;;;;;;2.63;2.43;;;;;;;1.12;100.00;99177.66;5070962;28;20179;-79
2021/11/30 04:59:37;;;;;;;0.70;0.70;;;;;;;1.11;100.00;99187.59;5070647;28;20174;-79
2021/11/30 05:02:03;;;;;;;2.63;2.37;;;;;;;1.09;100.00;99187.09;5071031;28;20219;-79
2021/11/30 05:04:30;;;;;;;2.33;2.20;;;;;;;1.09;100.00;99176.34;5070603;28;20216;-79
2021/11/30 05:06:56;;;;;;;2.13;2.03;;;;;;;1.10;100.00;99169.06;5070465;28;20509;-79
2021/11/30 05:09:21;;;;;;;1.73;1.63;;;;;;;1.14;100.00;99153.97;5069553;28;20448;-79
2021/11/30 05:11:47;;;;;;;1.40;1.40;;;;;;;1.16;100.00;99157.19;5070731;28;20202;-79
2021/11/30 05:14:12;;;;;;;1.57;0.97;;;;;;;1.13;100.00;99158.53;5070599;28;20206;-80
2021/11/30 05:16:39;;;;;;;0.40;0.40;;;;;;;1.14;100.00;99148.59;5071341;28;20179;-80
2021/11/30 05:19:04;;;;;;;0.60;0.60;;;;;;;1.12;100.00;99156.94;5079710;28;20696;-79
2021/11/30 05:21:30;;;;;;;0.63;0.63;;;;;;;1.11;100.00;99133.81;5071829;28;20456;-80
2021/11/30 05:23:59;;;;;;;2.53;0.60;;;;;;;1.12;100.00;99142.69;5071370;28;20189;-79
2021/11/30 05:26:25;;;;;;;1.60;1.50;;;;;;;1.14;100.00;99127.88;5070476;28;20227;-80
2021/11/30 05:28:50;;;;;;;0.77;0.77;;;;;;;1.15;100.00;99134.84;5070670;28;21036;-80
2021/11/30 05:31:15;;;;;;;1.33;1.03;;;;;;;1.18;100.00;99123.56;5070441;28;20174;-80
2021/11/30 05:33:41;;;;;;;0.77;0.77;;;;;;;1.19;100.00;99127.84;5070261;28;20574;-79
2021/11/30 05:36:07;;;;;;;1.70;1.60;;;;;;;1.21;100.00;99116.81;5070583;28;20200;-80
2021/11/30 05:38:33;;;;;;;0.77;0.77;;;;;;;1.25;100.00;99122.41;5069278;28;20181;-81
2021/11/30 05:40:58;;;;;;;0.33;0.27;;;;;;;1.27;100.00;99109.47;5068855;28;20198;-79
2021/11/30 05:43:24;;;;;;;1.50;1.30;;;;;;;1.30;100.00;99104.38;5070017;28;20416;-80
2021/11/30 05:45:50;;;;;;;0.97;0.97;;;;;;;1.34;100.00;99083.06;5070328;28;20285;-80
2021/11/30 05:48:16;;;;;;;0.53;0.50;;;;;;;1.36;100.00;99097.03;5070093;28;20193;-79
2021/11/30 05:50:42;;;;;;;2.20;1.40;;;;;;;1.41;100.00;99095.09;5070437;28;20254;-80
2021/11/30 05:53:08;;;;;;;0.97;0.70;;;;;;;1.43;100.00;99098.28;5069529;28;20413;-80
2021/11/30 05:55:33;;;;;;;0.70;0.70;;;;;;;1.47;100.00;99101.22;5069554;28;20206;-79
2021/11/30 05:57:59;;;;;;;0.40;0.40;;;;;;;1.48;100.00;99078.63;5070209;28;20190;-80
2021/11/30 06:00:27;;;;;;;1.40;1.30;;;;;;;1.53;100.00;99096.59;5070024;28;20182;-81
2021/11/30 06:05:18;;;;;;;0.77;0.77;;;;;;;1.61;100.00;99082.53;5070022;28;20421;-81
2021/11/30 06:07:43;;;;;;;1.67;1.33;;;;;;;1.65;100.00;99072.78;5070654;28;20265;-81
2021/11/30 06:10:08;;;;;;;0.57;0.57;;;;;;;1.69;100.00;99073.81;5073215;28;20186;-79
2021/11/30 06:12:34;;;;;;;0.97;0.97;;;;;;;1.72;100.00;99067.84;5073663;28;20179;-83
2021/11/30 06:14:59;;;;;;;0.97;0.90;;;;;;;1.72;100.00;99052.50;5071634;28;20202;-79
2021/11/30 06:17:24;;;;;;;0.50;0.50;;;;;;;1.75;100.00;99027.72;5070050;28;20194;-80
2021/11/30 06:19:50;;;;;;;0.90;0.90;;;;;;;1.77;100.00;99073.97;5073313;28;20308;-80
2021/11/30 06:22:15;;;;;;;2.00;1.90;;;;;;;1.82;100.00;99045.38;5073489;28;20649;-80
2021/11/30 06:24:41;;;;;;;1.10;1.10;;;;;;;1.86;100.00;99052.59;5073795;28;20250;-79
2021/11/30 06:27:06;;;;;;;0.93;0.87;;;;;;;1.90;100.00;99061.72;5073672;28;20265;-80
2021/11/30 06:29:31;;;;;;;1.30;1.20;;;;;;;1.93;100.00;99044.97;5068310;28;20523;-79
2021/11/30 06:31:57;;;;;;;1.10;1.07;;;;;;;1.94;100.00;99046.59;5072045;28;20174;-79
2021/11/30 06:34:22;;;;;;;0.43;0.43;;;;;;;1.98;100.00;99039.53;5071777;28;20218;-79
2021/11/30 06:36:48;;;;;;;2.13;2.03;;;;;;;1.98;100.00;99044.09;5072946;28;20193;-80
2021/11/30 06:39:13;;;;;;;1.60;1.50;;;;;;;2.02;100.00;99045.13;5073284;28;20171;-80
2021/11/30 06:41:38;;;;;;;0.97;0.97;;;;;;;2.05;100.00;99031.91;5073224;28;20175;-80
2021/11/30 06:44:04;;;;;;;0.70;0.70;;;;;;;2.09;100.00;99061.75;5071779;28;20269;-79
2021/11/30 06:46:29;;;;;;;0.63;0.63;;;;;;;2.11;100.00;99056.06;5072869;28;20175;-80
2021/11/30 06:48:54;;;;;;;1.60;1.50;;;;;;;2.14;100.00;99037.41;5073091;28;20178;-79
2021/11/30 06:51:21;;;;;;;1.13;1.00;;;;;;;2.15;100.00;99036.31;5073053;28;20186;-80
2021/11/30 06:53:46;;;;;;;4.93;1.17;;;;;;;2.15;100.00;99022.84;5071550;28;20181;-81
2021/11/30 06:56:11;;;;;;;0.53;0.53;;;;;;;2.19;100.00;99028.50;5071415;28;20420;-80
2021/11/30 06:58:37;;;;;;;0.40;0.40;;;;;;;2.25;100.00;99016.53;5073161;28;20175;-80
2021/11/30 07:01:03;;;;;;;0.50;0.50;;;;;;;2.30;100.00;99016.44;5071704;28;20660;-80
2021/11/30 07:03:28;;;;;;;1.10;1.10;;;;;;;2.35;100.00;99032.56;5072743;28;20170;-80
2021/11/30 07:06:01;;;;;;;0.40;0.40;;;;;;;2.39;100.00;99028.19;5072765;28;20785;-80
2021/11/30 07:11:20;;;;;;;1.10;1.10;;;;;;;2.48;100.00;99014.84;5072594;28;20687;-80
2021/11/30 07:13:45;;;;;;;0.63;0.63;;;;;;;2.49;100.00;99056.88;5071386;28;20178;-80
2021/11/30 07:16:10;;;;;;;1.07;1.03;;;;;;;2.50;100.00;99061.19;5072235;28;20541;-80
2021/11/30 07:18:36;;;;;;;0.80;0.80;;;;;;;2.52;100.00;99045.50;5072483;28;20185;-81
2021/11/30 07:21:02;;;;;;;1.07;0.50;;;;;;;2.55;100.00;99034.94;5072353;28;20171;-81
2021/11/30 07:23:29;;;;;;;0.20;0.20;;;;;;;2.57;100.00;99045.44;5072326;28;20210;-80
2021/11/30 07:25:55;;;;;;;0.60;0.47;;;;;;;2.62;100.00;99046.16;5070512;28;20634;-80
2021/11/30 07:28:28;;;;;;;0.40;0.40;;;;;;;2.65;100.00;99034.78;5065100;28;20179;-81
2021/11/30 07:30:55;;;;;;;0.27;0.27;;;;;;;2.67;100.00;99039.88;5072247;28;20658;-81
2021/11/30 07:33:21;;;;;;;0.30;0.30;;;;;;;2.73;100.00;99017.13;5069599;28;20261;-81
2021/11/30 07:35:47;;;;;;;0.40;0.40;;;;;;;2.78;100.00;99032.44;5071740;28;20190;-81
2021/11/30 07:38:12;;;;;;;0.30;0.30;;;;;;;2.75;100.00;99020.34;5072025;28;20175;-81
2021/11/30 07:40:38;;;;;;;0.30;0.30;;;;;;;2.79;100.00;99031.34;5071976;28;20801;-80
2021/11/30 07:43:03;;;;;;;0.20;0.20;;;;;;;2.84;100.00;99023.16;5070634;28;20261;-81
2021/11/30 07:45:28;;;;;;;0.17;0.17;;;;;;;2.87;100.00;99030.66;5071742;28;20175;-80
2021/11/30 07:47:54;;;;;;;0.40;0.40;;;;;;;2.95;100.00;99020.00;5071682;28;20206;-80
2021/11/30 07:50:19;;;;;;;0.67;0.47;;;;;;;3.04;100.00;99011.22;5070494;28;20265;-80
2021/11/30 07:52:45;;;;;;;0.20;0.20;;;;;;;3.08;100.00;99002.25;5071561;28;20170;-79
2021/11/30 07:55:13;;;;;;;0.73;0.53;;;;;;;3.13;100.00;99006.75;5071319;28;20803;-79
2021/11/30 07:57:39;;;;;;;0.17;0.17;;;;;;;3.19;100.00;99003.66;5071947;28;20266;-79
2021/11/30 08:00:08;;;;;;;0.53;0.53;;;;;;;3.28;100.00;99023.44;5071665;28;20681;-80
2021/11/30 08:02:33;;;;;;;0.30;0.27;;;;;;;3.39;100.00;99012.47;5071537;28;20178;-80
2021/11/30 08:04:59;;;;;;;0.10;0.10;;;;;;;3.44;100.00;98999.66;5071307;28;20177;-80
2021/11/30 08:07:24;;;;;;;0.50;0.50;;;;;;;3.46;100.00;99005.56;5071370;28;20182;-79
2021/11/30 08:09:50;;;;;;;0.20;0.20;;;;;;;3.47;100.00;99003.66;5070043;28;20209;-79
2021/11/30 08:12:16;;;;;;;0.10;0.10;;;;;;;3.50;100.00;99000.38;5071506;28;20534;-79
2021/11/30 08:14:43;;;;;;;0.40;0.40;;;;;;;3.56;100.00;98983.78;5071129;28;20230;-79
2021/11/30 08:17:15;;;;;;;0.20;0.20;;;;;;;3.62;100.00;98986.34;5071672;28;20198;-79
2021/11/30 08:19:42;;;;;;;0.30;0.30;;;;;;;3.68;100.00;99001.38;5071292;28;20213;-80
2021/11/30 08:22:07;;;;;;;0.00;0.00;;;;;;;3.74;100.00;99002.84;5070037;28;20201;-78
2021/11/30 08:24:33;;;;;;;0.50;0.50;;;;;;;3.78;100.00;98995.78;5071118;28;20620;-79
2021/11/30 08:26:58;;;;;;;0.43;0.40;;;;;;;3.81;100.00;98993.25;5069738;28;20577;-79
2021/11/30 08:29:23;;;;;;;0.33;0.33;;;;;;;3.82;100.00;98975.16;5070346;28;20634;-80
2021/11/30 08:31:49;;;;;;;1.80;1.70;;;;;;;3.85;100.00;98980.75;5070240;28;20174;-79
2021/11/30 08:34:14;;;;;;;0.57;0.57;;;;;;;3.93;100.00;98991.94;5069357;28;20202;-79
2021/11/30 08:36:39;;;;;;;1.47;1.37;;;;;;;3.96;100.00;98988.63;5070533;28;20204;-79
2021/11/30 08:39:05;;;;;;;1.63;1.53;;;;;;;3.99;100.00;98980.72;5070688;28;20182;-79
2021/11/30 08:41:30;;;;;;;1.23;1.03;;;;;;;4.00;100.00;98987.72;5070728;28;20197;-79
2021/11/30 08:43:56;;;;;;;2.43;2.20;;;;;;;4.04;100.00;98986.00;5070687;28;20186;-79
2021/11/30 08:46:21;;;;;;;1.03;1.03;;;;;;;4.07;100.00;98992.72;5070780;28;20190;-79
2021/11/30 08:48:47;;;;;;;2.93;2.73;;;;;;;4.11;100.00;98985.59;5070778;28;20197;-79
2021/11/30 08:51:13;;;;;;;0.93;0.93;;;;;;;4.13;100.00;98970.66;5070733;28;20206;-80
2021/11/30 08:53:38;;;;;;;1.90;1.77;;;;;;;4.16;100.00;98975.47;5070813;28;20619;-80
2021/11/30 08:56:05;;;;;;;1.63;1.53;;;;;;;4.20;100.00;98962.16;5069221;28;20189;-79
2021/11/30 08:58:32;;;;;;;0.50;0.50;;;;;;;4.22;100.00;98969.94;5070842;28;20281;-79
2021/11/30 09:00:58;;;;;;;0.60;0.60;;;;;;;4.26;100.00;98970.94;5070722;28;20205;-79
2021/11/30 09:03:23;;;;;;;1.53;1.43;;;;;;;4.28;100.00;98979.53;5070717;28;20685;-79
2021/11/30 09:05:49;;;;;;;0.50;0.50;;;;;;;4.32;100.00;98975.09;5070538;28;20182;-79
2021/11/30 09:08:15;;;;;;;4.60;1.77;;;;;;;4.31;100.00;98968.91;5070507;28;20545;-79
2021/11/30 09:10:40;;;;;;;1.40;1.30;;;;;;;4.35;100.00;98955.59;5070662;28;20227;-80
2021/11/30 09:13:06;;;;;;;2.23;2.13;;;;;;;4.39;100.00;98943.03;5067469;28;20178;-80
2021/11/30 09:15:33;;;;;;;1.07;1.07;;;;;;;4.41;100.00;98941.63;5069094;28;20217;-80
2021/11/30 09:17:59;;;;;;;1.57;1.47;;;;;;;4.42;100.00;98934.31;5070382;28;20537;-81
2021/11/30 09:20:25;;;;;;;1.70;1.60;;;;;;;4.41;100.00;98951.66;5070452;28;20179;-80
2021/11/30 09:22:51;;;;;;;2.33;2.20;;;;;;;4.43;100.00;98930.50;5070581;28;20175;-79
2021/11/30 09:25:18;;;;;;;1.37;1.30;;;;;;;4.43;100.00;98925.88;5070308;28;20177;-79
2021/11/30 09:27:43;;;;;;;2.00;1.73;;;;;;;4.50;100.00;98922.78;5069864;28;20196;-80
2021/11/30 09:30:11;;;;;;;2.70;2.50;;;;;;;4.57;100.00;98933.94;5067102;28;20739;-80
2021/11/30 09:32:39;;;;;;;2.07;1.97;;;;;;;4.59;100.00;98947.16;5070393;28;20190;-79
2021/11/30 09:35:11;;;;;;;3.47;2.23;;;;;;;4.63;100.00;98951.66;5070068;28;20289;-79
2021/11/30 09:37:39;;;;;;;2.67;2.50;;;;;;;4.67;100.00;98914.75;5070323;28;20175;-79
2021/11/30 09:40:08;;;;;;;1.90;1.80;;;;;;;4.70;100.00;98927.66;5070317;28;20175;-79
2021/11/30 09:42:33;;;;;;;1.47;1.33;;;;;;;4.72;100.00;98925.44;5071678;28;20181;-80
2021/11/30 09:45:03;;;;;;;0.87;0.87;;;;;;;4.76;100.00;98931.00;5074233;28;20166;-80
2021/11/30 09:47:29;;;;;;;1.20;1.20;;;;;;;4.78;100.00;98934.22;5074202;28;20504;-86
2021/11/30 09:49:55;;;;;;;1.30;1.23;;;;;;;4.78;100.00;98937.75;5073840;28;20174;-88
2021/11/30 09:52:20;;;;;;;1.50;0.30;;;;;;;4.81;100.00;98924.69;5074216;28;20170;-82
2021/11/30 09:54:45;;;;;;;0.60;0.60;;;;;;;4.83;100.00;98930.59;5074004;28;20727;-88
2021/11/30 09:57:11;;;;;;;0.40;0.40;;;;;;;4.86;100.00;98936.16;5074339;28;20171;-92
2021/11/30 09:59:36;;;;;;;0.53;0.53;;;;;;;4.88;100.00;98927.75;5074381;28;20171;-88
2021/11/30 10:02:01;;;;;;;0.10;0.10;;;;;;;4.91;100.00;98927.13;5074379;28;20181;-83
2021/11/30 10:04:27;;;;;;;1.13;1.03;;;;;;;4.93;100.00;98933.03;5073811;28;20585;-83
2021/11/30 10:06:52;;;;;;;0.50;0.43;;;;;;;4.94;100.00;98929.22;5073382;28;20257;-85
2021/11/30 10:09:24;;;;;;;1.17;1.10;;;;;;;4.97;100.00;98925.88;5073776;28;20190;-76
2021/11/30 10:12:06;;;;;;;0.10;0.10;;;;;;;5.00;100.00;98944.19;5073857;28;20170;-77
2021/11/30 10:14:34;;;;;;;0.47;0.47;;;;;;;5.00;100.00;98925.25;5073636;28;20190;-76
2021/11/30 10:17:26;;;;;;;0.57;0.57;;;;;;;5.05;100.00;98925.09;5072257;28;20240;-76
2021/11/30 10:19:53;;;;;;;0.70;0.70;;;;;;;5.07;100.00;98914.78;5064825;28;20193;-76
2021/11/30 10:22:50;;;;;;;0.30;0.30;;;;;;;5.11;100.00;98932.00;5073323;28;20170;-76
2021/11/30 10:25:17;;;;;;;0.20;0.20;;;;;;;5.17;100.00;98936.16;5073073;28;20171;-77
2021/11/30 10:27:46;;;;;;;1.03;0.47;;;;;;;5.21;100.00;98929.03;5073311;28;20178;-77
2021/11/30 10:30:24;;;;;;;0.40;0.40;;;;;;;5.27;100.00;98913.41;5072064;28;20178;-77
2021/11/30 10:32:51;;;;;;;0.20;0.20;;;;;;;5.32;100.00;98924.91;5073725;28;20570;-76
2021/11/30 10:35:19;;;;;;;0.87;0.67;;;;;;;5.37;100.00;98940.22;5071524;28;20206;-77
2021/11/30 10:37:46;;;;;;;0.27;0.27;;;;;;;5.38;100.00;98939.09;5070232;28;20175;-77
2021/11/30 10:40:24;;;;;;;0.50;0.50;;;;;;;5.36;100.00;98936.72;5073239;28;20201;-77
2021/11/30 10:42:53;;;;;;;0.53;0.40;;;;;;;5.37;100.00;98932.91;5072730;28;20216;-77
2021/11/30 10:45:27;;;;;;;9.40;0.40;;;;;;;5.40;100.00;98925.25;5067362;28;20205;-77
2021/11/30 10:47:52;;;;;;;0.27;0.20;;;;;;;5.44;100.00;98931.63;5068273;28;20193;-77
2021/11/30 10:50:25;;;;;;;0.17;0.17;;;;;;;5.47;100.00;98928.28;5069547;28;20186;-77
2021/11/30 10:52:52;;;;;;;0.20;0.20;;;;;;;5.50;100.00;98923.06;5070722;28;20182;-77
2021/11/30 10:55:18;;;;;;;0.10;0.10;;;;;;;5.54;100.00;98920.50;5070781;28;20218;-76
2021/11/30 10:57:47;;;;;;;0.00;0.00;;;;;;;5.55;100.00;98932.94;5071269;28;20307;-77
2021/11/30 11:00:20;;;;;;;0.00;0.00;;;;;;;5.57;100.00;98930.72;5072568;28;20641;-75
2021/11/30 11:02:54;;;;;;;0.30;0.30;;;;;;;5.58;100.00;98930.38;5072965;28;20546;-76
2021/11/30 11:05:27;;;;;;;0.97;0.97;;;;;;;5.60;100.00;98933.56;5072583;28;20173;-76
2021/11/30 11:08:10;;;;;;;0.70;0.50;;;;;;;5.61;100.00;98932.47;5072539;28;20183;-76
2021/11/30 11:10:42;;;;;;;0.10;0.10;;;;;;;5.67;100.00;98942.06;5060244;28;20186;-76
2021/11/30 11:13:29;;;;;;;4.23;0.40;;;;;;;5.76;100.00;98933.13;5061764;28;20174;-76
2021/11/30 11:15:57;;;;;;;1.40;1.30;;;;;;;5.84;100.00;98932.34;5072152;28;20210;-76
2021/11/30 11:18:34;;;;;;;0.10;0.10;;;;;;;5.90;100.00;98936.53;5072413;28;20495;-75
2021/11/30 11:21:19;;;;;;;0.63;0.63;;;;;;;5.96;100.00;98929.84;5072359;28;20198;-76
2021/11/30 11:23:56;;;;;;;0.70;0.47;;;;;;;6.04;100.00;98936.38;5072341;28;20182;-76
2021/11/30 11:26:25;;;;;;;0.20;0.20;;;;;;;6.06;100.00;98926.81;5072052;28;20253;-75
2021/11/30 11:28:52;;;;;;;4.17;1.13;;;;;;;6.09;100.00;98920.75;5069890;28;20649;-75
2021/11/30 11:31:19;;;;;;;1.17;1.17;;;;;;;6.15;100.00;98919.47;5070785;28;20549;-75
2021/11/30 11:33:45;;;;;;;2.83;0.57;;;;;;;6.23;100.00;98924.13;5071654;28;20537;-76
2021/11/30 11:36:10;;;;;;;0.23;0.23;;;;;;;6.31;100.00;98910.84;5071552;28;20171;-76
2021/11/30 11:38:36;;;;;;;6.70;0.50;;;;;;;6.38;100.00;98920.13;5071787;28;20655;-76
2021/11/30 11:41:01;;;;;;;0.20;0.20;;;;;;;6.43;100.00;98932.69;5071172;28;20232;-76
2021/11/30 11:43:27;;;;;;;0.40;0.40;;;;;;;6.46;100.00;98934.78;5071552;28;20186;-76
2021/11/30 11:45:54;;;;;;;1.83;1.07;;;;;;;6.49;100.00;98937.63;5061399;28;20201;-76